Time;durP1;ratioP1;P1;durP2;ratioP2;P2;SDS_P1;SDS_P2;PMS_P1;PMS_P2;Temp;Humidity;BMP_temperature;BMP_pressure;BME280_temperature;BME280_humidity;BME280_pressure;Samples;Min_cycle;Max_cycle;Signal;HPM_P1;HPM_P2
2022/04/12 00:01:31;;;;;;;6.20;3.33;;;;;;;;;;5007278;28;20053;-69
2022/04/12 00:03:57;;;;;;;9.10;3.55;;;;;;;;;;5007139;28;20054;-69
2022/04/12 00:06:24;;;;;;;3.97;2.60;;;;;;;;;;5007250;28;20057;-69
2022/04/12 00:08:50;;;;;;;7.60;3.17;;;;;;;;;;5024804;28;20133;-70
2022/04/12 00:11:16;;;;;;;7.97;3.65;;;;;;;;;;5024457;28;20125;-70
2022/04/12 00:13:43;;;;;;;4.90;2.90;;;;;;;;;;5024850;28;20045;-69
2022/04/12 00:16:09;;;;;;;5.95;3.38;;;;;;;;;;5025065;28;20041;-70
2022/04/12 00:21:20;;;;;;;7.63;3.88;;;;;;;;;;5006926;28;20196;-69
2022/04/12 00:23:46;;;;;;;5.75;2.75;;;;;;;;;;5003120;28;20064;-70
2022/04/12 00:26:14;;;;;;;6.05;3.60;;;;;;;;;;4987532;28;20050;-70
2022/04/12 00:28:43;;;;;;;7.13;3.63;;;;;;;;;;5005004;28;20046;-69
2022/04/12 00:31:09;;;;;;;5.10;3.22;;;;;;;;;;4971191;28;20293;-69
2022/04/12 00:33:35;;;;;;;5.35;3.50;;;;;;;;;;5004946;28;20047;-70
2022/04/12 00:36:02;;;;;;;7.72;2.72;;;;;;;;;;4987580;28;20042;-70
2022/04/12 00:38:33;;;;;;;9.40;3.80;;;;;;;;;;4986889;28;20061;-70
2022/04/12 00:40:59;;;;;;;7.47;3.58;;;;;;;;;;4987645;28;20070;-70
2022/04/12 00:43:27;;;;;;;9.10;4.13;;;;;;;;;;4987034;28;20096;-69
2022/04/12 00:45:53;;;;;;;5.47;3.20;;;;;;;;;;4987643;28;20050;-70
2022/04/12 00:48:19;;;;;;;7.97;3.40;;;;;;;;;;4986977;28;20417;-70
2022/04/12 00:50:46;;;;;;;6.82;3.33;;;;;;;;;;4987307;28;20125;-70
2022/04/12 00:53:13;;;;;;;7.53;3.58;;;;;;;;;;5005067;28;20046;-70
2022/04/12 00:55:39;;;;;;;6.15;3.70;;;;;;;;;;4990485;28;20062;-70
2022/04/12 00:58:07;;;;;;;5.32;3.50;;;;;;;;;;4990965;28;20418;-70
2022/04/12 01:00:33;;;;;;;;;;;;;;;;;;5009088;28;20058;-69
2022/04/12 01:02:59;;;;;;;9.68;4.13;;;;;;;;;;5008507;28;19945;-70
2022/04/12 01:05:25;;;;;;;11.23;4.35;;;;;;;;;;5008639;28;20413;-70
2022/04/12 01:07:51;;;;;;;6.57;3.00;;;;;;;;;;5008515;28;20042;-70
2022/04/12 01:10:17;;;;;;;9.68;4.18;;;;;;;;;;5007446;28;20052;-69
2022/04/12 01:12:46;;;;;;;7.97;4.43;;;;;;;;;;5008532;28;20042;-70
2022/04/12 01:15:14;;;;;;;10.10;4.63;;;;;;;;;;5008602;28;20106;-69
2022/04/12 01:17:41;;;;;;;4.63;3.55;;;;;;;;;;4991060;28;20050;-70
2022/04/12 01:20:07;;;;;;;6.78;4.10;;;;;;;;;;4990373;28;20050;-69
2022/04/12 01:22:34;;;;;;;8.40;4.10;;;;;;;;;;4990667;28;20050;-69
2022/04/12 01:25:00;;;;;;;5.10;3.20;;;;;;;;;;5022021;28;20105;-69
2022/04/12 01:27:27;;;;;;;8.90;4.03;;;;;;;;;;5006230;28;20058;-70
2022/04/12 01:29:54;;;;;;;8.17;4.07;;;;;;;;;;5008244;28;20069;-69
2022/04/12 01:32:20;;;;;;;8.50;4.80;;;;;;;;;;5009620;28;20521;-70
2022/04/12 01:34:46;;;;;;;10.65;4.32;;;;;;;;;;5027946;28;20078;-70
2022/04/12 01:37:12;;;;;;;9.45;4.30;;;;;;;;;;5027243;28;20042;-69
2022/04/12 01:39:38;;;;;;;10.68;4.13;;;;;;;;;;5027479;28;20551;-70
2022/04/12 01:42:05;;;;;;;13.45;5.28;;;;;;;;;;5009859;28;20125;-69
2022/04/12 01:44:31;;;;;;;9.00;5.10;;;;;;;;;;5009804;28;20084;-69
2022/04/12 01:46:57;;;;;;;7.75;4.82;;;;;;;;;;5009709;28;20464;-70
2022/04/12 01:49:23;;;;;;;7.03;5.15;;;;;;;;;;5009488;28;20060;-70
2022/04/12 01:51:50;;;;;;;11.90;5.63;;;;;;;;;;5027097;28;20048;-69
2022/04/12 01:54:16;;;;;;;10.10;5.95;;;;;;;;;;5009857;28;20057;-69
2022/04/12 01:56:42;;;;;;;6.57;4.38;;;;;;;;;;5027054;28;20121;-70
2022/04/12 01:59:09;;;;;;;9.10;5.28;;;;;;;;;;5009659;28;20044;-70
2022/04/12 02:01:35;;;;;;;14.55;5.47;;;;;;;;;;5009554;28;20060;-69
2022/04/12 02:04:01;;;;;;;9.43;4.68;;;;;;;;;;5042197;28;20066;-69
2022/04/12 02:06:27;;;;;;;8.68;5.15;;;;;;;;;;5025811;28;20049;-70
2022/04/12 02:08:53;;;;;;;8.20;5.10;;;;;;;;;;5026385;28;20046;-69
2022/04/12 02:11:19;;;;;;;8.45;5.20;;;;;;;;;;5026979;28;20048;-69
2022/04/12 02:13:45;;;;;;;6.65;4.32;;;;;;;;;;4993018;28;20418;-69
2022/04/12 02:16:11;;;;;;;10.27;5.85;;;;;;;;;;5027080;28;20073;-69
2022/04/12 02:18:37;;;;;;;7.57;6.05;;;;;;;;;;5008638;28;20053;-70
2022/04/12 02:21:04;;;;;;;11.02;5.10;;;;;;;;;;5009159;28;20050;-69
2022/04/12 02:23:30;;;;;;;10.23;5.45;;;;;;;;;;5026628;28;20068;-70
2022/04/12 02:25:56;;;;;;;10.70;5.05;;;;;;;;;;5026692;28;20082;-70
2022/04/12 02:28:22;;;;;;;9.35;5.22;;;;;;;;;;5007770;28;20128;-70
2022/04/12 02:30:48;;;;;;;11.05;5.75;;;;;;;;;;5007116;28;20046;-69
2022/04/12 02:33:14;;;;;;;13.07;5.95;;;;;;;;;;5006936;28;20046;-70
2022/04/12 02:35:40;;;;;;;19.05;6.47;;;;;;;;;;4994308;28;20500;-69
2022/04/12 02:38:07;;;;;;;7.05;5.22;;;;;;;;;;5008826;28;20068;-69
2022/04/12 02:40:33;;;;;;;11.48;5.32;;;;;;;;;;5026498;28;20137;-69
2022/04/12 02:42:59;;;;;;;8.23;5.47;;;;;;;;;;5026294;28;20429;-70
2022/04/12 02:45:25;;;;;;;10.15;6.07;;;;;;;;;;5008427;28;20060;-69
2022/04/12 02:47:51;;;;;;;10.80;6.38;;;;;;;;;;5008325;28;20061;-69
2022/04/12 02:50:17;;;;;;;11.50;6.60;;;;;;;;;;5008615;28;20054;-69
2022/04/12 02:52:43;;;;;;;9.10;5.47;;;;;;;;;;5026390;28;20117;-70
2022/04/12 02:55:09;;;;;;;11.55;6.25;;;;;;;;;;5026282;28;20045;-69
2022/04/12 02:57:36;;;;;;;18.80;6.63;;;;;;;;;;5025750;28;20109;-70
2022/04/12 03:00:02;;;;;;;10.50;6.68;;;;;;;;;;5026081;28;20050;-70
2022/04/12 03:02:28;;;;;;;12.60;6.55;;;;;;;;;;5026154;28;20156;-69
2022/04/12 03:04:54;;;;;;;12.35;6.07;;;;;;;;;;5026213;28;20045;-69
2022/04/12 03:07:20;;;;;;;11.48;7.07;;;;;;;;;;5025614;28;20049;-70
2022/04/12 03:09:46;;;;;;;9.95;6.70;;;;;;;;;;5025976;28;20109;-70
2022/04/12 03:12:12;;;;;;;12.73;7.63;;;;;;;;;;5025885;28;20424;-69
2022/04/12 03:14:38;;;;;;;12.88;7.38;;;;;;;;;;5025888;28;20042;-69
2022/04/12 03:17:04;;;;;;;10.50;6.72;;;;;;;;;;5024981;28;20057;-69
2022/04/12 03:19:31;;;;;;;12.23;7.05;;;;;;;;;;5025689;28;20049;-69
2022/04/12 03:21:57;;;;;;;13.18;7.25;;;;;;;;;;5025643;28;20577;-69
2022/04/12 03:24:23;;;;;;;10.85;6.68;;;;;;;;;;5025638;28;20081;-69
2022/04/12 03:26:52;;;;;;;13.20;7.65;;;;;;;;;;5025161;28;20050;-69
2022/04/12 03:29:18;;;;;;;13.00;6.85;;;;;;;;;;5025526;28;20505;-69
2022/04/12 03:31:44;;;;;;;12.45;7.25;;;;;;;;;;5025161;28;20082;-69
2022/04/12 03:34:10;;;;;;;8.13;6.00;;;;;;;;;;5025198;28;20097;-69
2022/04/12 03:36:37;;;;;;;12.43;7.72;;;;;;;;;;5025482;28;20050;-69
2022/04/12 03:39:04;;;;;;;10.05;6.65;;;;;;;;;;5025145;28;20125;-69
2022/04/12 03:41:31;;;;;;;13.48;7.65;;;;;;;;;;5025248;28;20041;-70
2022/04/12 03:43:57;;;;;;;8.77;6.97;;;;;;;;;;5007760;28;20394;-70
2022/04/12 03:46:23;;;;;;;14.75;7.80;;;;;;;;;;5007351;28;20053;-69
2022/04/12 03:48:49;;;;;;;9.07;6.75;;;;;;;;;;5024855;28;20049;-69
2022/04/12 03:51:15;;;;;;;11.32;7.38;;;;;;;;;;5025123;28;20052;-70
2022/04/12 03:53:41;;;;;;;10.50;7.45;;;;;;;;;;5025109;28;20033;-69
2022/04/12 03:56:08;;;;;;;11.73;6.88;;;;;;;;;;5025179;28;20052;-69
2022/04/12 03:58:38;;;;;;;12.50;8.25;;;;;;;;;;5024312;28;20056;-69
2022/04/12 04:01:05;;;;;;;12.85;7.97;;;;;;;;;;5024985;28;20053;-69
2022/04/12 04:03:31;;;;;;;17.60;8.32;;;;;;;;;;5024920;28;20050;-70
2022/04/12 04:05:57;;;;;;;13.27;8.00;;;;;;;;;;5007493;28;20096;-69
2022/04/12 04:08:23;;;;;;;12.43;8.23;;;;;;;;;;5024822;28;20077;-69
2022/04/12 04:10:50;;;;;;;13.68;8.02;;;;;;;;;;5007200;28;20050;-70
2022/04/12 04:13:17;;;;;;;17.33;7.85;;;;;;;;;;5024935;28;20153;-69
2022/04/12 04:15:45;;;;;;;16.05;8.07;;;;;;;;;;5024844;28;20061;-71
2022/04/12 04:18:12;;;;;;;14.07;7.88;;;;;;;;;;5024535;28;20055;-70
2022/04/12 04:20:38;;;;;;;12.18;8.27;;;;;;;;;;5025022;28;20054;-69
2022/04/12 04:23:05;;;;;;;17.80;8.85;;;;;;;;;;5024588;28;20045;-69
2022/04/12 04:25:31;;;;;;;12.70;8.27;;;;;;;;;;5024576;28;20116;-71
2022/04/12 04:27:57;;;;;;;16.10;8.70;;;;;;;;;;5024614;28;20057;-70
2022/04/12 04:30:23;;;;;;;14.10;9.23;;;;;;;;;;5027738;28;20088;-70
2022/04/12 04:32:50;;;;;;;13.27;9.07;;;;;;;;;;5028152;28;20050;-70
2022/04/12 04:35:16;;;;;;;12.13;8.88;;;;;;;;;;5011029;28;20064;-70
2022/04/12 04:37:43;;;;;;;15.80;9.32;;;;;;;;;;5028409;28;20033;-69
2022/04/12 04:40:11;;;;;;;10.75;7.40;;;;;;;;;;5028680;28;20054;-70
2022/04/12 04:42:40;;;;;;;12.30;8.45;;;;;;;;;;5010969;28;20038;-70
2022/04/12 04:45:07;;;;;;;17.48;9.38;;;;;;;;;;5010974;28;20500;-70
2022/04/12 04:47:34;;;;;;;15.32;9.38;;;;;;;;;;5008630;28;20054;-70
2022/04/12 04:50:01;;;;;;;14.43;8.60;;;;;;;;;;5007438;28;20085;-70
2022/04/12 04:52:27;;;;;;;12.98;9.07;;;;;;;;;;5008753;28;20422;-70
2022/04/12 04:54:53;;;;;;;11.52;8.85;;;;;;;;;;5009852;28;20804;-70
2022/04/12 04:57:19;;;;;;;13.93;9.32;;;;;;;;;;5027185;28;20064;-71
2022/04/12 04:59:46;;;;;;;15.63;9.60;;;;;;;;;;5007727;28;20064;-70
2022/04/12 05:02:12;;;;;;;12.73;8.82;;;;;;;;;;5026440;28;20125;-70
2022/04/12 05:04:38;;;;;;;15.95;10.15;;;;;;;;;;5026875;28;20034;-69
2022/04/12 05:07:04;;;;;;;15.70;8.98;;;;;;;;;;5026452;28;20592;-69
2022/04/12 05:09:30;;;;;;;14.38;10.30;;;;;;;;;;5006945;28;20136;-70
2022/04/12 05:11:56;;;;;;;12.57;8.75;;;;;;;;;;5027308;28;20068;-70
2022/04/12 05:14:22;;;;;;;12.68;9.02;;;;;;;;;;5027781;28;20101;-69
2022/04/12 05:16:48;;;;;;;13.43;9.40;;;;;;;;;;5027548;28;20475;-69
2022/04/12 05:19:14;;;;;;;16.80;9.13;;;;;;;;;;5027669;28;20053;-69
2022/04/12 05:21:41;;;;;;;14.05;8.95;;;;;;;;;;5026702;28;20049;-70
2022/04/12 05:24:07;;;;;;;14.43;9.63;;;;;;;;;;5034066;28;20053;-69
2022/04/12 05:26:33;;;;;;;10.30;8.32;;;;;;;;;;5036502;28;20042;-70
2022/04/12 05:28:59;;;;;;;14.40;9.13;;;;;;;;;;5027027;28;20042;-70
2022/04/12 05:31:25;;;;;;;13.88;9.38;;;;;;;;;;5023638;28;20050;-70
2022/04/12 05:33:51;;;;;;;17.58;9.10;;;;;;;;;;5026909;28;20054;-69
2022/04/12 05:36:17;;;;;;;15.98;9.70;;;;;;;;;;5027209;28;20034;-69
2022/04/12 05:38:43;;;;;;;14.98;8.23;;;;;;;;;;5006735;28;20081;-69
2022/04/12 05:41:09;;;;;;;13.00;9.13;;;;;;;;;;5024553;28;20046;-69
2022/04/12 05:43:35;;;;;;;12.57;8.38;;;;;;;;;;4992257;28;20082;-69
2022/04/12 05:46:02;;;;;;;15.48;8.65;;;;;;;;;;5025806;28;20249;-68
2022/04/12 05:48:28;;;;;;;10.95;8.27;;;;;;;;;;5009422;28;20052;-69
2022/04/12 05:50:54;;;;;;;13.43;8.45;;;;;;;;;;5027389;28;20042;-69
2022/04/12 05:53:22;;;;;;;12.73;7.35;;;;;;;;;;5027106;28;20060;-69
2022/04/12 05:55:48;;;;;;;16.50;9.00;;;;;;;;;;5025359;28;20050;-69
2022/04/12 05:58:15;;;;;;;18.08;8.75;;;;;;;;;;5014637;28;20073;-69
2022/04/12 06:00:41;;;;;;;11.10;8.13;;;;;;;;;;5018316;28;20101;-70
2022/04/12 06:03:07;;;;;;;13.75;8.93;;;;;;;;;;5026064;28;20042;-69
2022/04/12 06:05:33;;;;;;;14.88;8.68;;;;;;;;;;5010377;28;20053;-69
2022/04/12 06:08:00;;;;;;;8.35;5.63;;;;;;;;;;5007136;28;20047;-69
2022/04/12 06:10:27;;;;;;;14.30;7.78;;;;;;;;;;5015785;28;20099;-69
2022/04/12 06:12:53;;;;;;;16.23;9.23;;;;;;;;;;5026611;28;20124;-69
2022/04/12 06:15:19;;;;;;;16.98;8.43;;;;;;;;;;5009034;28;20050;-69
2022/04/12 06:17:45;;;;;;;9.50;7.13;;;;;;;;;;5025902;28;20038;-70
2022/04/12 06:20:13;;;;;;;9.88;7.43;;;;;;;;;;5018236;28;20046;-69
2022/04/12 06:22:40;;;;;;;13.13;7.78;;;;;;;;;;5022648;28;20046;-70
2022/04/12 06:25:07;;;;;;;10.75;7.28;;;;;;;;;;5021583;28;20085;-70
2022/04/12 06:27:37;;;;;;;11.60;6.43;;;;;;;;;;5026502;28;20084;-70
2022/04/12 06:30:07;;;;;;;9.80;6.82;;;;;;;;;;5026501;28;20056;-70
2022/04/12 06:32:34;;;;;;;11.23;7.97;;;;;;;;;;5024853;28;20121;-69
2022/04/12 06:35:00;;;;;;;14.38;8.25;;;;;;;;;;5026312;28;20096;-69
2022/04/12 06:37:26;;;;;;;13.93;8.75;;;;;;;;;;5008748;28;20050;-70
2022/04/12 06:39:53;;;;;;;12.23;7.50;;;;;;;;;;5026336;28;20045;-69
2022/04/12 06:42:20;;;;;;;12.48;7.85;;;;;;;;;;5025700;28;20045;-69
2022/04/12 06:44:46;;;;;;;12.20;8.05;;;;;;;;;;5026341;28;20042;-68
2022/04/12 06:47:14;;;;;;;15.75;8.80;;;;;;;;;;5026202;28;20041;-69
2022/04/12 06:49:42;;;;;;;13.10;8.95;;;;;;;;;;5026173;28;20089;-69
2022/04/12 06:52:08;;;;;;;;;;;;;;;;;;5025313;28;20037;-68
2022/04/12 06:54:34;;;;;;;10.60;7.75;;;;;;;;;;5026077;28;19921;-68
2022/04/12 06:57:00;;;;;;;10.88;8.40;;;;;;;;;;5025856;28;20105;-69
2022/04/12 06:59:27;;;;;;;12.10;7.93;;;;;;;;;;5026007;28;20089;-69
2022/04/12 07:01:53;;;;;;;10.25;7.85;;;;;;;;;;5025143;28;20409;-69
2022/04/12 07:04:19;;;;;;;14.07;8.75;;;;;;;;;;5014965;28;20050;-70
2022/04/12 07:06:45;;;;;;;14.02;8.68;;;;;;;;;;5025613;28;20045;-69
2022/04/12 07:09:17;;;;;;;17.50;8.30;;;;;;;;;;5025327;28;20048;-70
2022/04/12 07:11:43;;;;;;;15.82;8.98;;;;;;;;;;5024390;28;20093;-69
2022/04/12 07:14:09;;;;;;;13.23;8.70;;;;;;;;;;5025953;28;20057;-69
2022/04/12 07:16:35;;;;;;;15.98;8.50;;;;;;;;;;5025913;28;20038;-68
2022/04/12 07:19:01;;;;;;;12.82;8.85;;;;;;;;;;5025748;28;20100;-70
2022/04/12 07:21:29;;;;;;;11.25;7.93;;;;;;;;;;5024781;28;20101;-68
2022/04/12 07:23:55;;;;;;;12.43;7.97;;;;;;;;;;5005413;28;20064;-69
2022/04/12 07:26:21;;;;;;;12.57;8.90;;;;;;;;;;5005961;28;20046;-69
2022/04/12 07:28:48;;;;;;;12.00;8.68;;;;;;;;;;5011636;28;20078;-69
2022/04/12 07:31:14;;;;;;;16.38;9.48;;;;;;;;;;5021795;28;20041;-69
2022/04/12 07:33:40;;;;;;;12.95;7.70;;;;;;;;;;5021468;28;20053;-69
2022/04/12 07:36:06;;;;;;;11.45;7.90;;;;;;;;;;5007872;28;20042;-69
2022/04/12 07:38:32;;;;;;;13.30;8.50;;;;;;;;;;5024615;28;20080;-69
2022/04/12 07:40:58;;;;;;;11.02;7.65;;;;;;;;;;5024540;28;20058;-69
2022/04/12 07:43:24;;;;;;;13.68;8.50;;;;;;;;;;5025227;28;20037;-69
2022/04/12 07:45:51;;;;;;;12.82;7.55;;;;;;;;;;5024919;28;20468;-70
2022/04/12 07:48:17;;;;;;;15.77;8.68;;;;;;;;;;4988556;28;20073;-69
2022/04/12 07:50:43;;;;;;;11.90;7.22;;;;;;;;;;5025182;28;20081;-69
2022/04/12 07:53:10;;;;;;;13.63;8.80;;;;;;;;;;5025150;28;20149;-69
2022/04/12 07:55:36;;;;;;;12.02;8.15;;;;;;;;;;5011389;28;20050;-68
2022/04/12 07:58:02;;;;;;;12.48;9.60;;;;;;;;;;5006868;28;20076;-69
2022/04/12 08:00:28;;;;;;;12.35;7.88;;;;;;;;;;5019743;28;20117;-71
2022/04/12 08:02:54;;;;;;;11.90;7.97;;;;;;;;;;5028138;28;20152;-70
2022/04/12 08:05:20;;;;;;;11.23;7.80;;;;;;;;;;5024761;28;20122;-69
2022/04/12 08:07:49;;;;;;;15.52;8.02;;;;;;;;;;5006797;28;20548;-69
2022/04/12 08:10:16;;;;;;;15.18;8.05;;;;;;;;;;5014160;28;20540;-69
2022/04/12 08:12:42;;;;;;;15.02;8.00;;;;;;;;;;5006197;28;20037;-69
2022/04/12 08:15:12;;;;;;;12.68;7.78;;;;;;;;;;5025744;28;20042;-70
2022/04/12 08:17:38;;;;;;;12.50;8.30;;;;;;;;;;5006926;28;20097;-69
2022/04/12 08:20:05;;;;;;;13.82;8.75;;;;;;;;;;5016451;28;20073;-70
2022/04/12 08:22:34;;;;;;;15.07;8.17;;;;;;;;;;5006175;28;20049;-69
2022/04/12 08:25:01;;;;;;;10.20;7.82;;;;;;;;;;4989722;28;20115;-69
2022/04/12 08:27:27;;;;;;;19.02;9.52;;;;;;;;;;4986706;28;20078;-69
2022/04/12 08:29:53;;;;;;;11.40;7.85;;;;;;;;;;5004736;28;20081;-69
2022/04/12 08:32:19;;;;;;;10.65;6.82;;;;;;;;;;5004909;28;21532;-70
2022/04/12 08:34:47;;;;;;;11.95;7.80;;;;;;;;;;5004018;28;20065;-69
2022/04/12 08:37:13;;;;;;;10.32;7.65;;;;;;;;;;5004357;28;20042;-69
2022/04/12 08:39:39;;;;;;;13.55;7.75;;;;;;;;;;5010085;28;20110;-69
2022/04/12 08:42:06;;;;;;;10.50;8.27;;;;;;;;;;5004999;28;20057;-70
2022/04/12 08:44:33;;;;;;;9.80;6.70;;;;;;;;;;5000074;28;20112;-70
2022/04/12 08:47:02;;;;;;;15.13;8.45;;;;;;;;;;5001723;28;20290;-70
2022/04/12 08:49:29;;;;;;;9.80;5.70;;;;;;;;;;5002615;28;20414;-70
2022/04/12 08:51:55;;;;;;;11.55;7.30;;;;;;;;;;5004172;28;20136;-70
2022/04/12 08:54:22;;;;;;;9.05;5.40;;;;;;;;;;5003288;28;20053;-71
2022/04/12 08:56:49;;;;;;;10.20;7.20;;;;;;;;;;5004762;28;20392;-70
2022/04/12 08:59:15;;;;;;;12.13;8.63;;;;;;;;;;5002421;28;20045;-70
2022/04/12 09:01:42;;;;;;;15.50;6.03;;;;;;;;;;5003706;28;20101;-69
2022/04/12 09:04:11;;;;;;;11.63;7.97;;;;;;;;;;4985083;28;20053;-69
2022/04/12 09:06:50;;;;;;;12.25;7.63;;;;;;;;;;4982931;28;20038;-69
2022/04/12 09:09:18;;;;;;;8.80;6.30;;;;;;;;;;4983532;28;20046;-69
2022/04/12 09:11:54;;;;;;;11.55;7.55;;;;;;;;;;4998439;28;20062;-70
2022/04/12 09:14:21;;;;;;;10.18;7.88;;;;;;;;;;5003371;28;20038;-70
2022/04/12 09:16:47;;;;;;;11.23;8.02;;;;;;;;;;5006404;28;20121;-70
2022/04/12 09:19:13;;;;;;;12.82;7.47;;;;;;;;;;5007722;28;20041;-69
2022/04/12 09:21:46;;;;;;;12.60;8.38;;;;;;;;;;5008734;28;20131;-70
2022/04/12 09:24:22;;;;;;;9.52;6.63;;;;;;;;;;4982223;28;20054;-69
2022/04/12 09:26:55;;;;;;;10.00;6.90;;;;;;;;;;4999040;28;20422;-70
2022/04/12 09:29:29;;;;;;;10.50;8.18;;;;;;;;;;5014947;28;20042;-69
2022/04/12 09:31:58;;;;;;;12.15;7.38;;;;;;;;;;5011870;28;20046;-69
2022/04/12 09:34:25;;;;;;;13.73;8.13;;;;;;;;;;5008464;28;20125;-69
2022/04/12 09:36:51;;;;;;;10.70;7.55;;;;;;;;;;5013623;28;20105;-69
2022/04/12 09:39:21;;;;;;;12.05;7.40;;;;;;;;;;5007168;28;20065;-69
2022/04/12 09:41:48;;;;;;;12.93;8.60;;;;;;;;;;5013129;28;20038;-69
2022/04/12 09:44:17;;;;;;;10.85;7.93;;;;;;;;;;5020163;28;20050;-70
2022/04/12 09:46:44;;;;;;;12.75;8.43;;;;;;;;;;5012235;28;20054;-70
2022/04/12 09:49:11;;;;;;;12.75;8.02;;;;;;;;;;5008412;28;20046;-69
2022/04/12 09:51:38;;;;;;;9.90;6.00;;;;;;;;;;5006480;28;20047;-69
2022/04/12 09:54:08;;;;;;;11.15;7.70;;;;;;;;;;5008799;28;20047;-69
2022/04/12 09:56:36;;;;;;;10.18;7.50;;;;;;;;;;5007385;28;20053;-69
2022/04/12 09:59:03;;;;;;;12.50;7.53;;;;;;;;;;4996728;28;20069;-69
2022/04/12 10:01:31;;;;;;;10.95;8.48;;;;;;;;;;5005908;28;20056;-69
2022/04/12 10:03:57;;;;;;;;;;;;;;;;;;5002272;28;20038;-69
2022/04/12 10:06:24;;;;;;;11.98;7.50;;;;;;;;;;5002222;28;19921;-69
2022/04/12 10:08:59;;;;;;;10.68;7.82;;;;;;;;;;5002762;28;20042;-68
2022/04/12 10:11:25;;;;;;;13.95;7.85;;;;;;;;;;5007539;28;20121;-69
2022/04/12 10:13:52;;;;;;;10.57;7.20;;;;;;;;;;5007006;28;20039;-69
2022/04/12 10:16:20;;;;;;;11.33;8.30;;;;;;;;;;4987987;28;20043;-69
2022/04/12 10:18:46;;;;;;;14.80;9.13;;;;;;;;;;4986569;28;20106;-68
2022/04/12 10:21:13;;;;;;;12.20;8.20;;;;;;;;;;4987675;28;20097;-69
2022/04/12 10:23:44;;;;;;;9.80;7.32;;;;;;;;;;4989942;28;20066;-69
2022/04/12 10:26:11;;;;;;;9.15;6.50;;;;;;;;;;5026250;28;20054;-68
2022/04/12 10:28:37;;;;;;;11.65;7.85;;;;;;;;;;5025792;28;20399;-68
2022/04/12 10:31:04;;;;;;;10.60;6.38;;;;;;;;;;5026476;28;20041;-69
2022/04/12 10:33:30;;;;;;;9.32;7.70;;;;;;;;;;5025203;28;20053;-69
2022/04/12 10:35:57;;;;;;;13.10;8.15;;;;;;;;;;5025463;28;20049;-69
2022/04/12 10:38:24;;;;;;;13.05;8.63;;;;;;;;;;4991070;28;20124;-69
2022/04/12 10:40:52;;;;;;;9.95;7.82;;;;;;;;;;5026330;28;20053;-69
2022/04/12 10:43:24;;;;;;;12.60;8.38;;;;;;;;;;5026138;28;20088;-69
2022/04/12 10:45:50;;;;;;;15.07;9.02;;;;;;;;;;5008353;28;20054;-70
2022/04/12 10:48:20;;;;;;;12.80;8.07;;;;;;;;;;5025965;28;20505;-70
2022/04/12 10:50:48;;;;;;;10.95;8.13;;;;;;;;;;5026156;28;20052;-70
2022/04/12 10:53:14;;;;;;;;;;;;;;;;;;5008786;28;20501;-70
2022/04/12 10:55:42;;;;;;;11.48;7.45;;;;;;;;;;5025665;28;19921;-69
2022/04/12 10:58:28;;;;;;;11.07;6.25;;;;;;;;;;5007741;28;20056;-70
2022/04/12 11:00:55;;;;;;;9.30;5.78;;;;;;;;;;5026077;28;20477;-70
2022/04/12 11:03:26;;;;;;;10.45;6.93;;;;;;;;;;5026074;28;20124;-70
2022/04/12 11:05:55;;;;;;;9.80;7.75;;;;;;;;;;4999240;28;20105;-70
2022/04/12 11:08:21;;;;;;;13.45;7.88;;;;;;;;;;5022890;28;20108;-70
2022/04/12 11:10:57;;;;;;;13.50;7.63;;;;;;;;;;5020023;28;20097;-70
2022/04/12 11:13:27;;;;;;;11.75;8.30;;;;;;;;;;5017383;28;20049;-69
2022/04/12 11:16:07;;;;;;;9.98;6.97;;;;;;;;;;5018708;28;20110;-64
2022/04/12 11:18:45;;;;;;;12.93;8.23;;;;;;;;;;5024094;28;20056;-66
2022/04/12 11:21:11;;;;;;;11.60;8.18;;;;;;;;;;5020435;28;20085;-73
2022/04/12 11:23:57;;;;;;;11.18;7.75;;;;;;;;;;5019577;28;20279;-72
2022/04/12 11:26:27;;;;;;;11.98;7.95;;;;;;;;;;5025259;28;20105;-73
2022/04/12 11:28:56;;;;;;;11.70;8.02;;;;;;;;;;5024434;28;20037;-73
2022/04/12 11:31:22;;;;;;;12.02;7.95;;;;;;;;;;5025138;28;20042;-72
2022/04/12 11:33:48;;;;;;;11.35;8.63;;;;;;;;;;5024494;28;20046;-75
2022/04/12 11:36:18;;;;;;;9.57;7.77;;;;;;;;;;5024908;28;20049;-71
2022/04/12 11:38:45;;;;;;;14.43;8.98;;;;;;;;;;5019947;28;20406;-75
2022/04/12 11:41:11;;;;;;;10.15;8.13;;;;;;;;;;5026241;28;20044;-80
2022/04/12 11:43:37;;;;;;;11.88;8.05;;;;;;;;;;5025046;28;20085;-68
2022/04/12 11:46:03;;;;;;;11.93;8.75;;;;;;;;;;5024265;28;20559;-68
2022/04/12 11:48:30;;;;;;;10.17;8.47;;;;;;;;;;5007683;28;20081;-68
2022/04/12 11:50:57;;;;;;;10.50;7.78;;;;;;;;;;5024749;28;20050;-68
2022/04/12 11:53:24;;;;;;;12.30;7.80;;;;;;;;;;5024612;28;20045;-68
2022/04/12 11:55:50;;;;;;;12.73;8.02;;;;;;;;;;5024791;28;20042;-71
2022/04/12 11:58:19;;;;;;;10.70;7.25;;;;;;;;;;5023063;28;20128;-66
2022/04/12 12:00:45;;;;;;;11.13;7.35;;;;;;;;;;5023309;28;20482;-67
2022/04/12 12:03:16;;;;;;;10.68;7.93;;;;;;;;;;5006829;28;20057;-68
2022/04/12 12:05:42;;;;;;;12.18;8.10;;;;;;;;;;5005202;28;20056;-69
2022/04/12 12:08:10;;;;;;;10.60;7.90;;;;;;;;;;5007067;28;20053;-58
2022/04/12 12:10:36;;;;;;;;;;;;;;;;;;5022942;28;20037;-65
2022/04/12 12:13:05;;;;;;;9.98;7.65;;;;;;;;;;5019361;28;19961;-65
2022/04/12 12:15:33;;;;;;;12.77;8.35;;;;;;;;;;5024578;28;20049;-65
2022/04/12 12:17:59;;;;;;;;;;;;;;;;;;5024646;28;20049;-64
2022/04/12 12:20:26;;;;;;;10.60;7.97;;;;;;;;;;5024942;28;19921;-65
2022/04/12 12:23:12;;;;;;;13.50;7.93;;;;;;;;;;5024615;28;20261;-64
2022/04/12 12:25:41;;;;;;;19.85;7.75;;;;;;;;;;5024230;28;20081;-64
2022/04/12 12:28:15;;;;;;;11.45;7.30;;;;;;;;;;5024655;28;20050;-64
2022/04/12 12:30:41;;;;;;;12.90;8.48;;;;;;;;;;5024646;28;20050;-64
2022/04/12 12:33:07;;;;;;;14.63;8.75;;;;;;;;;;5006313;28;20049;-64
2022/04/12 12:35:34;;;;;;;10.60;7.63;;;;;;;;;;5024446;28;20052;-64
2022/04/12 12:38:10;;;;;;;11.35;7.40;;;;;;;;;;5024351;28;20041;-64
2022/04/12 12:40:37;;;;;;;11.98;8.45;;;;;;;;;;5024609;28;20543;-65
2022/04/12 12:43:05;;;;;;;11.13;8.65;;;;;;;;;;5024616;28;20073;-65
2022/04/12 12:45:31;;;;;;;10.35;8.00;;;;;;;;;;5024719;28;20037;-65
2022/04/12 12:47:58;;;;;;;13.27;7.75;;;;;;;;;;5024443;28;20096;-65
2022/04/12 12:50:25;;;;;;;12.00;8.20;;;;;;;;;;5025509;28;20103;-65
2022/04/12 12:53:02;;;;;;;9.93;7.70;;;;;;;;;;5028401;28;20069;-64
2022/04/12 12:55:30;;;;;;;12.15;8.40;;;;;;;;;;5028609;28;20102;-65
2022/04/12 12:57:59;;;;;;;10.98;8.85;;;;;;;;;;5028443;28;20125;-65
2022/04/12 13:00:29;;;;;;;9.50;7.32;;;;;;;;;;5028041;28;20513;-64
2022/04/12 13:03:05;;;;;;;12.85;7.95;;;;;;;;;;5028090;28;20053;-64
2022/04/12 13:05:32;;;;;;;12.85;8.00;;;;;;;;;;5028303;28;20053;-65
2022/04/12 13:08:00;;;;;;;10.75;7.57;;;;;;;;;;5028095;28;20049;-65
2022/04/12 13:10:28;;;;;;;13.50;7.47;;;;;;;;;;5027787;28;20096;-65
2022/04/12 13:12:54;;;;;;;11.65;7.53;;;;;;;;;;5027837;28;20096;-65
2022/04/12 13:15:21;;;;;;;13.80;9.25;;;;;;;;;;5028042;28;20097;-65
2022/04/12 13:17:48;;;;;;;12.77;8.02;;;;;;;;;;5028203;28;20042;-64
2022/04/12 13:20:15;;;;;;;13.60;9.20;;;;;;;;;;5027678;28;20097;-64
2022/04/12 13:22:41;;;;;;;14.70;8.43;;;;;;;;;;5027956;28;20050;-64
2022/04/12 13:25:07;;;;;;;11.63;8.90;;;;;;;;;;5026468;28;20069;-64
2022/04/12 13:27:37;;;;;;;15.13;9.05;;;;;;;;;;5026400;28;20050;-66
2022/04/12 13:30:04;;;;;;;15.10;8.77;;;;;;;;;;5025685;28;20038;-64
2022/04/12 13:32:30;;;;;;;13.98;9.15;;;;;;;;;;5024580;28;20112;-64
2022/04/12 13:34:58;;;;;;;13.15;9.52;;;;;;;;;;5017694;28;20113;-65
2022/04/12 13:37:24;;;;;;;17.33;10.32;;;;;;;;;;5025502;28;20081;-65
2022/04/12 13:39:51;;;;;;;19.52;10.13;;;;;;;;;;5023086;28;20065;-66
2022/04/12 13:42:18;;;;;;;13.27;9.67;;;;;;;;;;5024169;28;20049;-65
2022/04/12 13:44:46;;;;;;;13.18;9.45;;;;;;;;;;5017847;28;20042;-64
2022/04/12 13:47:12;;;;;;;14.93;10.40;;;;;;;;;;5021645;28;20096;-64
2022/04/12 13:49:38;;;;;;;17.83;9.88;;;;;;;;;;5025944;28;20437;-65
2022/04/12 13:52:05;;;;;;;17.08;11.23;;;;;;;;;;5026894;28;20091;-64
2022/04/12 13:54:31;;;;;;;14.52;8.88;;;;;;;;;;5022997;28;20050;-64
2022/04/12 13:56:58;;;;;;;14.35;9.43;;;;;;;;;;5021381;28;20042;-65
2022/04/12 13:59:24;;;;;;;16.75;10.10;;;;;;;;;;5022075;28;20046;-64
2022/04/12 14:01:51;;;;;;;22.15;10.38;;;;;;;;;;5024234;28;20121;-66
2022/04/12 14:04:18;;;;;;;18.90;10.57;;;;;;;;;;5025333;28;20045;-65
2022/04/12 14:06:44;;;;;;;14.88;9.75;;;;;;;;;;5024050;28;20102;-65
2022/04/12 14:09:10;;;;;;;17.15;9.68;;;;;;;;;;5025550;28;20056;-64
2022/04/12 14:11:37;;;;;;;15.68;10.02;;;;;;;;;;5012639;28;20041;-64
2022/04/12 14:14:05;;;;;;;13.73;9.32;;;;;;;;;;5023755;28;20126;-64
2022/04/12 14:16:31;;;;;;;;;;;;;;;;;;5024044;28;20054;-64
2022/04/12 14:18:57;;;;;;;17.35;10.63;;;;;;;;;;5021795;28;19931;-65
2022/04/12 14:21:23;;;;;;;13.73;9.50;;;;;;;;;;5020265;28;20093;-65
2022/04/12 14:23:49;;;;;;;17.60;11.05;;;;;;;;;;5008044;28;20046;-64
2022/04/12 14:26:15;;;;;;;16.17;10.05;;;;;;;;;;5024299;28;20383;-64
2022/04/12 14:28:42;;;;;;;16.92;10.63;;;;;;;;;;5004241;28;20060;-64
2022/04/12 14:31:09;;;;;;;18.60;10.70;;;;;;;;;;5020749;28;20053;-64
2022/04/12 14:33:35;;;;;;;;;;;;;;;;;;5023629;28;20052;-65
2022/04/12 14:36:02;;;;;;;19.55;9.98;;;;;;;;;;5022930;28;19928;-64
2022/04/12 14:38:28;;;;;;;14.90;10.33;;;;;;;;;;5024030;28;20038;-68